sensor_id;sensor_type;location;lat;lon;timestamp;temperature;humidity
43862;DHT22;29510;52.140;5.034;2024-03-29T00:07:11;9.90;1.00
43862;DHT22;29510;52.140;5.034;2024-03-29T00:17:11;9.90;1.00
43862;DHT22;29510;52.140;5.034;2024-03-29T00:27:13;9.90;1.00
43862;DHT22;29510;52.140;5.034;2024-03-29T00:37:14;9.80;1.00
43862;DHT22;29510;52.140;5.034;2024-03-29T00:47:14;9.90;1.00
43862;DHT22;29510;52.140;5.034;2024-03-29T00:57:15;9.70;1.00
43862;DHT22;29510;52.140;5.034;2024-03-29T01:07:16;9.70;1.00
43862;DHT22;29510;52.140;5.034;2024-03-29T01:17:17;9.70;1.00
43862;DHT22;29510;52.140;5.034;2024-03-29T01:27:18;9.60;1.00
43862;DHT22;29510;52.140;5.034;2024-03-29T01:37:19;9.60;1.00
43862;DHT22;29510;52.140;5.034;2024-03-29T01:47:19;9.60;1.00
43862;DHT22;29510;52.140;5.034;2024-03-29T01:57:20;9.60;1.00
43862;DHT22;29510;52.140;5.034;2024-03-29T02:07:21;9.50;1.00
43862;DHT22;29510;52.140;5.034;2024-03-29T02:17:23;9.40;1.00
43862;DHT22;29510;52.140;5.034;2024-03-29T02:27:23;9.30;1.00
43862;DHT22;29510;52.140;5.034;2024-03-29T02:37:24;9.30;1.00
43862;DHT22;29510;52.140;5.034;2024-03-29T02:47:25;9.30;1.00
43862;DHT22;29510;52.140;5.034;2024-03-29T02:57:25;9.30;1.00
43862;DHT22;29510;52.140;5.034;2024-03-29T03:07:26;9.30;1.00
43862;DHT22;29510;52.140;5.034;2024-03-29T03:17:45;9.40;1.00
43862;DHT22;29510;52.140;5.034;2024-03-29T03:27:46;9.50;1.00
43862;DHT22;29510;52.140;5.034;2024-03-29T03:37:46;9.50;1.00
43862;DHT22;29510;52.140;5.034;2024-03-29T03:47:47;9.40;1.00
43862;DHT22;29510;52.140;5.034;2024-03-29T03:57:48;9.50;1.00
43862;DHT22;29510;52.140;5.034;2024-03-29T04:07:49;9.40;1.00
43862;DHT22;29510;52.140;5.034;2024-03-29T04:17:49;9.40;1.00
43862;DHT22;29510;52.140;5.034;2024-03-29T04:27:50;9.60;1.00
43862;DHT22;29510;52.140;5.034;2024-03-29T04:37:50;9.60;1.00
43862;DHT22;29510;52.140;5.034;2024-03-29T04:47:51;9.60;1.00
43862;DHT22;29510;52.140;5.034;2024-03-29T04:57:51;9.60;1.00
43862;DHT22;29510;52.140;5.034;2024-03-29T05:07:52;9.60;1.00
43862;DHT22;29510;52.140;5.034;2024-03-29T05:17:52;9.60;1.00
43862;DHT22;29510;52.140;5.034;2024-03-29T05:27:56;9.40;1.00
43862;DHT22;29510;52.140;5.034;2024-03-29T05:37:56;9.30;1.00
43862;DHT22;29510;52.140;5.034;2024-03-29T05:47:58;9.20;1.00
43862;DHT22;29510;52.140;5.034;2024-03-29T05:57:59;8.90;1.00
43862;DHT22;29510;52.140;5.034;2024-03-29T06:08:00;8.70;1.00
43862;DHT22;29510;52.140;5.034;2024-03-29T06:18:00;8.60;1.00
43862;DHT22;29510;52.140;5.034;2024-03-29T06:28:01;8.30;16.00
43862;DHT22;29510;52.140;5.034;2024-03-29T06:38:02;8.20;24.50
43862;DHT22;29510;52.140;5.034;2024-03-29T06:48:03;8.30;32.00
43862;DHT22;29510;52.140;5.034;2024-03-29T06:58:04;8.40;28.40
43862;DHT22;29510;52.140;5.034;2024-03-29T07:08:04;8.50;25.10
43862;DHT22;29510;52.140;5.034;2024-03-29T07:18:05;8.60;24.60
43862;DHT22;29510;52.140;5.034;2024-03-29T07:28:06;8.90;18.50
43862;DHT22;29510;52.140;5.034;2024-03-29T07:38:07;8.90;12.60
43862;DHT22;29510;52.140;5.034;2024-03-29T07:48:13;8.90;10.20
43862;DHT22;29510;52.140;5.034;2024-03-29T07:58:14;9.20;7.20
43862;DHT22;29510;52.140;5.034;2024-03-29T08:08:14;9.50;1.10
43862;DHT22;29510;52.140;5.034;2024-03-29T08:18:15;9.60;1.00
43862;DHT22;29510;52.140;5.034;2024-03-29T08:28:15;10.00;1.00
43862;DHT22;29510;52.140;5.034;2024-03-29T08:38:16;10.10;1.00
43862;DHT22;29510;52.140;5.034;2024-03-29T08:48:17;10.40;1.00
43862;DHT22;29510;52.140;5.034;2024-03-29T08:58:17;10.50;1.00
43862;DHT22;29510;52.140;5.034;2024-03-29T09:08:20;10.50;1.00
43862;DHT22;29510;52.140;5.034;2024-03-29T09:18:20;10.60;1.00
43862;DHT22;29510;52.140;5.034;2024-03-29T09:28:26;10.70;1.00
43862;DHT22;29510;52.140;5.034;2024-03-29T09:38:27;11.20;1.00
43862;DHT22;29510;52.140;5.034;2024-03-29T09:48:28;11.40;1.00
43862;DHT22;29510;52.140;5.034;2024-03-29T09:58:37;11.20;1.00
43862;DHT22;29510;52.140;5.034;2024-03-29T10:08:38;11.10;1.00
43862;DHT22;29510;52.140;5.034;2024-03-29T10:18:42;11.60;1.00
43862;DHT22;29510;52.140;5.034;2024-03-29T10:28:45;12.30;1.00
43862;DHT22;29510;52.140;5.034;2024-03-29T10:38:46;12.40;1.00
43862;DHT22;29510;52.140;5.034;2024-03-29T10:48:49;13.00;1.00
43862;DHT22;29510;52.140;5.034;2024-03-29T10:58:54;12.90;1.00
43862;DHT22;29510;52.140;5.034;2024-03-29T11:08:58;13.00;1.00
43862;DHT22;29510;52.140;5.034;2024-03-29T11:18:59;12.90;1.00
43862;DHT22;29510;52.140;5.034;2024-03-29T11:29:05;13.50;1.00
43862;DHT22;29510;52.140;5.034;2024-03-29T11:39:05;14.00;1.00
43862;DHT22;29510;52.140;5.034;2024-03-29T11:49:06;14.30;1.00
43862;DHT22;29510;52.140;5.034;2024-03-29T11:59:07;14.20;1.00
43862;DHT22;29510;52.140;5.034;2024-03-29T12:09:08;14.50;1.00
43862;DHT22;29510;52.140;5.034;2024-03-29T12:19:09;14.60;1.00
43862;DHT22;29510;52.140;5.034;2024-03-29T12:29:09;14.50;1.00
43862;DHT22;29510;52.140;5.034;2024-03-29T12:39:13;14.10;1.00
43862;DHT22;29510;52.140;5.034;2024-03-29T12:49:13;14.20;1.00
43862;DHT22;29510;52.140;5.034;2024-03-29T12:59:14;14.50;1.00
43862;DHT22;29510;52.140;5.034;2024-03-29T13:09:15;15.30;1.00
43862;DHT22;29510;52.140;5.034;2024-03-29T13:19:16;15.10;1.00
43862;DHT22;29510;52.140;5.034;2024-03-29T13:29:16;14.90;1.00
43862;DHT22;29510;52.140;5.034;2024-03-29T13:39:17;14.90;1.00
43862;DHT22;29510;52.140;5.034;2024-03-29T13:49:18;15.20;1.00
43862;DHT22;29510;52.140;5.034;2024-03-29T13:59:21;15.20;1.00
43862;DHT22;29510;52.140;5.034;2024-03-29T14:09:21;15.30;1.00
43862;DHT22;29510;52.140;5.034;2024-03-29T14:19:22;15.10;1.00
43862;DHT22;29510;52.140;5.034;2024-03-29T14:29:23;14.80;1.00
43862;DHT22;29510;52.140;5.034;2024-03-29T14:39:23;15.10;1.00
43862;DHT22;29510;52.140;5.034;2024-03-29T14:49:24;15.00;1.00
43862;DHT22;29510;52.140;5.034;2024-03-29T14:59:25;14.80;1.00
43862;DHT22;29510;52.140;5.034;2024-03-29T15:09:26;14.80;1.00
43862;DHT22;29510;52.140;5.034;2024-03-29T15:19:27;14.90;1.00
43862;DHT22;29510;52.140;5.034;2024-03-29T15:29:27;14.80;1.00
43862;DHT22;29510;52.140;5.034;2024-03-29T15:39:28;14.80;1.00
43862;DHT22;29510;52.140;5.034;2024-03-29T15:49:28;14.80;1.00
43862;DHT22;29510;52.140;5.034;2024-03-29T15:59:29;14.80;1.00
43862;DHT22;29510;52.140;5.034;2024-03-29T16:09:30;14.70;1.00
43862;DHT22;29510;52.140;5.034;2024-03-29T16:19:30;14.70;1.00
43862;DHT22;29510;52.140;5.034;2024-03-29T16:29:31;14.60;1.00
43862;DHT22;29510;52.140;5.034;2024-03-29T16:39:31;14.60;1.00
43862;DHT22;29510;52.140;5.034;2024-03-29T16:49:32;14.50;1.00
43862;DHT22;29510;52.140;5.034;2024-03-29T16:59:32;14.50;1.00
43862;DHT22;29510;52.140;5.034;2024-03-29T17:09:35;14.40;1.00
43862;DHT22;29510;52.140;5.034;2024-03-29T17:19:36;14.20;1.00
43862;DHT22;29510;52.140;5.034;2024-03-29T17:29:38;14.10;1.00
43862;DHT22;29510;52.140;5.034;2024-03-29T17:39:38;13.90;1.00
43862;DHT22;29510;52.140;5.034;2024-03-29T17:49:39;13.80;1.00
43862;DHT22;29510;52.140;5.034;2024-03-29T17:59:39;13.70;1.00
43862;DHT22;29510;52.140;5.034;2024-03-29T18:09:40;13.50;1.00
43862;DHT22;29510;52.140;5.034;2024-03-29T18:19:42;13.50;1.00
43862;DHT22;29510;52.140;5.034;2024-03-29T18:29:42;13.30;1.00
43862;DHT22;29510;52.140;5.034;2024-03-29T18:39:43;13.20;1.00
43862;DHT22;29510;52.140;5.034;2024-03-29T18:49:43;13.00;1.00
43862;DHT22;29510;52.140;5.034;2024-03-29T18:59:45;12.90;1.00
43862;DHT22;29510;52.140;5.034;2024-03-29T19:09:46;12.80;1.00
43862;DHT22;29510;52.140;5.034;2024-03-29T19:19:47;12.70;1.00
43862;DHT22;29510;52.140;5.034;2024-03-29T19:29:49;12.70;1.00
43862;DHT22;29510;52.140;5.034;2024-03-29T19:39:50;12.70;1.00
43862;DHT22;29510;52.140;5.034;2024-03-29T19:49:51;12.70;1.00
43862;DHT22;29510;52.140;5.034;2024-03-29T19:59:51;12.70;1.00
43862;DHT22;29510;52.140;5.034;2024-03-29T20:09:52;12.70;1.00
43862;DHT22;29510;52.140;5.034;2024-03-29T20:19:54;12.70;1.00
43862;DHT22;29510;52.140;5.034;2024-03-29T20:29:54;12.70;1.00
43862;DHT22;29510;52.140;5.034;2024-03-29T20:39:55;12.80;1.00
43862;DHT22;29510;52.140;5.034;2024-03-29T20:49:55;12.70;1.00
43862;DHT22;29510;52.140;5.034;2024-03-29T20:59:56;12.60;1.00
43862;DHT22;29510;52.140;5.034;2024-03-29T21:09:58;12.60;1.00
43862;DHT22;29510;52.140;5.034;2024-03-29T21:19:58;12.60;1.00
43862;DHT22;29510;52.140;5.034;2024-03-29T21:29:59;12.60;1.00
43862;DHT22;29510;52.140;5.034;2024-03-29T21:40:04;12.70;1.00
43862;DHT22;29510;52.140;5.034;2024-03-29T21:50:05;12.70;1.00
43862;DHT22;29510;52.140;5.034;2024-03-29T22:00:06;12.70;1.00
43862;DHT22;29510;52.140;5.034;2024-03-29T22:10:07;12.80;1.00
43862;DHT22;29510;52.140;5.034;2024-03-29T22:20:08;12.70;1.00
43862;DHT22;29510;52.140;5.034;2024-03-29T22:30:09;12.70;1.00
43862;DHT22;29510;52.140;5.034;2024-03-29T22:40:10;12.70;1.00
43862;DHT22;29510;52.140;5.034;2024-03-29T22:50:11;12.60;1.00
43862;DHT22;29510;52.140;5.034;2024-03-29T23:00:12;12.40;1.00
43862;DHT22;29510;52.140;5.034;2024-03-29T23:10:18;12.30;1.00
43862;DHT22;29510;52.140;5.034;2024-03-29T23:20:19;12.30;1.00
43862;DHT22;29510;52.140;5.034;2024-03-29T23:30:20;12.20;1.00
43862;DHT22;29510;52.140;5.034;2024-03-29T23:40:21;12.30;1.00
43862;DHT22;29510;52.140;5.034;2024-03-29T23:50:22;12.40;1.00
